sensor_id;sensor_type;location;lat;lon;timestamp;P1;durP1;ratioP1;P2;durP2;ratioP2
15629;SDS011;7914;50.842;0.166;2023-04-08T00:01:24;12.52;;;6.70;;
15629;SDS011;7914;50.842;0.166;2023-04-08T00:03:50;14.85;;;7.35;;
15629;SDS011;7914;50.842;0.166;2023-04-08T00:06:15;15.38;;;7.35;;
15629;SDS011;7914;50.842;0.166;2023-04-08T00:08:41;12.63;;;6.28;;
15629;SDS011;7914;50.842;0.166;2023-04-08T00:11:07;14.80;;;6.85;;
15629;SDS011;7914;50.842;0.166;2023-04-08T00:13:32;16.05;;;6.78;;
15629;SDS011;7914;50.842;0.166;2023-04-08T00:15:58;13.25;;;6.65;;
15629;SDS011;7914;50.842;0.166;2023-04-08T00:18:24;13.48;;;6.53;;
15629;SDS011;7914;50.842;0.166;2023-04-08T00:20:49;12.80;;;6.70;;
15629;SDS011;7914;50.842;0.166;2023-04-08T00:23:15;15.45;;;7.38;;
15629;SDS011;7914;50.842;0.166;2023-04-08T00:25:41;13.60;;;6.45;;
15629;SDS011;7914;50.842;0.166;2023-04-08T00:28:07;15.10;;;7.28;;
15629;SDS011;7914;50.842;0.166;2023-04-08T00:30:33;12.98;;;7.53;;
15629;SDS011;7914;50.842;0.166;2023-04-08T00:32:58;13.82;;;6.50;;
15629;SDS011;7914;50.842;0.166;2023-04-08T00:35:25;13.95;;;7.72;;
15629;SDS011;7914;50.842;0.166;2023-04-08T00:37:51;15.32;;;8.07;;
15629;SDS011;7914;50.842;0.166;2023-04-08T00:40:17;19.58;;;8.98;;
15629;SDS011;7914;50.842;0.166;2023-04-08T00:42:43;17.27;;;9.32;;
15629;SDS011;7914;50.842;0.166;2023-04-08T00:45:08;21.10;;;9.40;;
15629;SDS011;7914;50.842;0.166;2023-04-08T00:47:35;15.85;;;8.07;;
15629;SDS011;7914;50.842;0.166;2023-04-08T00:50:01;15.90;;;7.55;;
15629;SDS011;7914;50.842;0.166;2023-04-08T00:52:28;13.70;;;7.50;;
15629;SDS011;7914;50.842;0.166;2023-04-08T00:54:54;17.77;;;7.95;;
15629;SDS011;7914;50.842;0.166;2023-04-08T00:57:20;14.32;;;7.53;;
15629;SDS011;7914;50.842;0.166;2023-04-08T00:59:46;15.70;;;7.88;;
15629;SDS011;7914;50.842;0.166;2023-04-08T01:02:20;18.75;;;8.82;;
15629;SDS011;7914;50.842;0.166;2023-04-08T01:05:06;17.35;;;8.27;;
15629;SDS011;7914;50.842;0.166;2023-04-08T01:07:56;14.82;;;7.80;;
15629;SDS011;7914;50.842;0.166;2023-04-08T01:10:28;16.45;;;8.27;;
15629;SDS011;7914;50.842;0.166;2023-04-08T01:12:56;15.23;;;7.25;;
15629;SDS011;7914;50.842;0.166;2023-04-08T01:15:26;19.45;;;8.13;;
15629;SDS011;7914;50.842;0.166;2023-04-08T01:17:55;16.33;;;8.32;;
15629;SDS011;7914;50.842;0.166;2023-04-08T01:20:23;14.55;;;7.57;;
15629;SDS011;7914;50.842;0.166;2023-04-08T01:25:26;15.38;;;7.18;;
15629;SDS011;7914;50.842;0.166;2023-04-08T01:27:59;19.75;;;8.82;;
15629;SDS011;7914;50.842;0.166;2023-04-08T01:30:29;26.52;;;9.48;;
15629;SDS011;7914;50.842;0.166;2023-04-08T01:32:56;23.33;;;9.50;;
15629;SDS011;7914;50.842;0.166;2023-04-08T01:35:25;24.05;;;9.68;;
15629;SDS011;7914;50.842;0.166;2023-04-08T01:37:52;21.38;;;9.07;;
15629;SDS011;7914;50.842;0.166;2023-04-08T01:40:19;23.02;;;10.00;;
15629;SDS011;7914;50.842;0.166;2023-04-08T01:42:48;23.45;;;9.50;;
15629;SDS011;7914;50.842;0.166;2023-04-08T01:45:16;19.20;;;9.23;;
15629;SDS011;7914;50.842;0.166;2023-04-08T01:47:43;21.63;;;9.85;;
15629;SDS011;7914;50.842;0.166;2023-04-08T01:50:13;19.90;;;8.65;;
15629;SDS011;7914;50.842;0.166;2023-04-08T01:52:39;21.20;;;9.13;;
15629;SDS011;7914;50.842;0.166;2023-04-08T01:55:08;20.73;;;9.25;;
15629;SDS011;7914;50.842;0.166;2023-04-08T01:57:36;19.42;;;8.88;;
15629;SDS011;7914;50.842;0.166;2023-04-08T02:00:11;18.40;;;9.05;;
15629;SDS011;7914;50.842;0.166;2023-04-08T02:02:44;21.70;;;9.52;;
15629;SDS011;7914;50.842;0.166;2023-04-08T02:05:11;18.23;;;8.02;;
15629;SDS011;7914;50.842;0.166;2023-04-08T02:07:38;20.15;;;8.25;;
15629;SDS011;7914;50.842;0.166;2023-04-08T02:10:03;18.33;;;8.27;;
15629;SDS011;7914;50.842;0.166;2023-04-08T02:12:30;104.10;;;13.80;;
15629;SDS011;7914;50.842;0.166;2023-04-08T02:14:57;83.38;;;13.13;;
15629;SDS011;7914;50.842;0.166;2023-04-08T02:17:38;84.45;;;12.27;;
15629;SDS011;7914;50.842;0.166;2023-04-08T02:22:47;122.15;;;13.10;;
15629;SDS011;7914;50.842;0.166;2023-04-08T02:25:15;60.70;;;9.88;;
15629;SDS011;7914;50.842;0.166;2023-04-08T02:27:44;111.40;;;11.82;;
15629;SDS011;7914;50.842;0.166;2023-04-08T02:30:12;76.75;;;9.85;;
15629;SDS011;7914;50.842;0.166;2023-04-08T02:32:40;18.00;;;6.50;;
15629;SDS011;7914;50.842;0.166;2023-04-08T02:35:07;12.98;;;6.15;;
15629;SDS011;7914;50.842;0.166;2023-04-08T02:37:35;11.50;;;5.82;;
15629;SDS011;7914;50.842;0.166;2023-04-08T02:40:02;12.95;;;6.18;;
15629;SDS011;7914;50.842;0.166;2023-04-08T02:42:28;15.75;;;7.53;;
15629;SDS011;7914;50.842;0.166;2023-04-08T02:44:55;14.43;;;7.53;;
15629;SDS011;7914;50.842;0.166;2023-04-08T02:47:21;13.38;;;6.82;;
15629;SDS011;7914;50.842;0.166;2023-04-08T02:49:47;14.57;;;7.30;;
15629;SDS011;7914;50.842;0.166;2023-04-08T02:52:12;12.60;;;6.50;;
15629;SDS011;7914;50.842;0.166;2023-04-08T02:54:38;16.50;;;7.68;;
15629;SDS011;7914;50.842;0.166;2023-04-08T02:57:04;11.90;;;5.40;;
15629;SDS011;7914;50.842;0.166;2023-04-08T02:59:30;10.82;;;5.55;;
15629;SDS011;7914;50.842;0.166;2023-04-08T03:01:55;15.88;;;6.55;;
15629;SDS011;7914;50.842;0.166;2023-04-08T03:04:21;25.17;;;7.22;;
15629;SDS011;7914;50.842;0.166;2023-04-08T03:06:47;18.02;;;6.75;;
15629;SDS011;7914;50.842;0.166;2023-04-08T03:09:12;14.75;;;7.28;;
15629;SDS011;7914;50.842;0.166;2023-04-08T03:11:38;21.02;;;6.63;;
15629;SDS011;7914;50.842;0.166;2023-04-08T03:14:04;20.02;;;7.20;;
15629;SDS011;7914;50.842;0.166;2023-04-08T03:16:29;21.23;;;6.35;;
15629;SDS011;7914;50.842;0.166;2023-04-08T03:18:56;33.03;;;8.18;;
15629;SDS011;7914;50.842;0.166;2023-04-08T03:21:21;58.22;;;8.20;;
15629;SDS011;7914;50.842;0.166;2023-04-08T03:23:47;46.78;;;8.18;;
15629;SDS011;7914;50.842;0.166;2023-04-08T03:26:13;38.03;;;7.32;;
15629;SDS011;7914;50.842;0.166;2023-04-08T03:28:38;44.42;;;7.93;;
15629;SDS011;7914;50.842;0.166;2023-04-08T03:31:04;35.58;;;7.15;;
15629;SDS011;7914;50.842;0.166;2023-04-08T03:33:30;28.13;;;7.40;;
15629;SDS011;7914;50.842;0.166;2023-04-08T03:35:56;19.10;;;6.78;;
15629;SDS011;7914;50.842;0.166;2023-04-08T03:38:21;18.65;;;6.05;;
15629;SDS011;7914;50.842;0.166;2023-04-08T03:40:47;13.75;;;6.82;;
15629;SDS011;7914;50.842;0.166;2023-04-08T03:43:13;14.70;;;6.22;;
15629;SDS011;7914;50.842;0.166;2023-04-08T03:45:39;11.32;;;5.78;;
15629;SDS011;7914;50.842;0.166;2023-04-08T03:48:05;23.60;;;7.07;;
15629;SDS011;7914;50.842;0.166;2023-04-08T03:50:31;24.48;;;7.03;;
15629;SDS011;7914;50.842;0.166;2023-04-08T03:52:57;19.42;;;5.65;;
15629;SDS011;7914;50.842;0.166;2023-04-08T03:55:23;11.80;;;6.22;;
15629;SDS011;7914;50.842;0.166;2023-04-08T03:57:48;10.27;;;5.53;;
15629;SDS011;7914;50.842;0.166;2023-04-08T04:00:14;15.60;;;6.53;;
15629;SDS011;7914;50.842;0.166;2023-04-08T04:02:40;10.10;;;5.57;;
15629;SDS011;7914;50.842;0.166;2023-04-08T04:05:06;15.35;;;6.68;;
15629;SDS011;7914;50.842;0.166;2023-04-08T04:07:32;12.32;;;6.60;;
15629;SDS011;7914;50.842;0.166;2023-04-08T04:09:58;12.38;;;6.00;;
15629;SDS011;7914;50.842;0.166;2023-04-08T04:12:23;11.40;;;6.38;;
15629;SDS011;7914;50.842;0.166;2023-04-08T04:14:49;10.73;;;5.60;;
15629;SDS011;7914;50.842;0.166;2023-04-08T04:17:15;14.23;;;6.60;;
15629;SDS011;7914;50.842;0.166;2023-04-08T04:19:41;9.70;;;5.63;;
15629;SDS011;7914;50.842;0.166;2023-04-08T04:22:06;18.25;;;6.35;;
15629;SDS011;7914;50.842;0.166;2023-04-08T04:24:32;15.77;;;5.93;;
15629;SDS011;7914;50.842;0.166;2023-04-08T04:26:58;20.92;;;7.10;;
15629;SDS011;7914;50.842;0.166;2023-04-08T04:29:23;16.10;;;5.50;;
15629;SDS011;7914;50.842;0.166;2023-04-08T04:31:49;19.23;;;5.88;;
15629;SDS011;7914;50.842;0.166;2023-04-08T04:34:14;29.35;;;6.97;;
15629;SDS011;7914;50.842;0.166;2023-04-08T04:36:48;28.83;;;6.47;;
15629;SDS011;7914;50.842;0.166;2023-04-08T04:39:13;28.08;;;7.13;;
15629;SDS011;7914;50.842;0.166;2023-04-08T04:41:39;20.42;;;6.93;;
15629;SDS011;7914;50.842;0.166;2023-04-08T04:44:05;12.23;;;5.97;;
15629;SDS011;7914;50.842;0.166;2023-04-08T04:46:31;25.95;;;6.60;;
15629;SDS011;7914;50.842;0.166;2023-04-08T04:48:56;15.85;;;6.00;;
15629;SDS011;7914;50.842;0.166;2023-04-08T04:51:22;18.63;;;5.93;;
15629;SDS011;7914;50.842;0.166;2023-04-08T04:53:48;18.25;;;6.32;;
15629;SDS011;7914;50.842;0.166;2023-04-08T04:56:14;11.75;;;6.10;;
15629;SDS011;7914;50.842;0.166;2023-04-08T04:58:39;11.10;;;6.03;;
15629;SDS011;7914;50.842;0.166;2023-04-08T05:01:06;12.80;;;6.50;;
15629;SDS011;7914;50.842;0.166;2023-04-08T05:03:31;14.02;;;6.30;;
15629;SDS011;7914;50.842;0.166;2023-04-08T05:05:57;11.77;;;5.22;;
15629;SDS011;7914;50.842;0.166;2023-04-08T05:08:23;16.20;;;5.85;;
15629;SDS011;7914;50.842;0.166;2023-04-08T05:10:48;22.35;;;5.97;;
15629;SDS011;7914;50.842;0.166;2023-04-08T05:13:15;17.42;;;6.05;;
15629;SDS011;7914;50.842;0.166;2023-04-08T05:15:41;11.75;;;5.45;;
15629;SDS011;7914;50.842;0.166;2023-04-08T05:18:08;17.52;;;6.22;;
15629;SDS011;7914;50.842;0.166;2023-04-08T05:20:33;21.33;;;5.88;;
15629;SDS011;7914;50.842;0.166;2023-04-08T05:22:59;18.17;;;6.03;;
15629;SDS011;7914;50.842;0.166;2023-04-08T05:25:25;17.92;;;6.13;;
15629;SDS011;7914;50.842;0.166;2023-04-08T05:27:50;16.10;;;6.35;;
15629;SDS011;7914;50.842;0.166;2023-04-08T05:30:17;22.45;;;6.18;;
15629;SDS011;7914;50.842;0.166;2023-04-08T05:32:42;13.85;;;6.82;;
15629;SDS011;7914;50.842;0.166;2023-04-08T05:35:08;14.95;;;5.60;;
15629;SDS011;7914;50.842;0.166;2023-04-08T05:37:34;15.63;;;5.95;;
15629;SDS011;7914;50.842;0.166;2023-04-08T05:40:00;22.20;;;6.43;;
15629;SDS011;7914;50.842;0.166;2023-04-08T05:42:26;17.38;;;5.47;;
15629;SDS011;7914;50.842;0.166;2023-04-08T05:44:55;30.65;;;6.00;;
15629;SDS011;7914;50.842;0.166;2023-04-08T05:47:20;13.90;;;5.60;;
15629;SDS011;7914;50.842;0.166;2023-04-08T05:49:46;17.52;;;5.70;;
15629;SDS011;7914;50.842;0.166;2023-04-08T05:52:12;20.30;;;7.00;;
15629;SDS011;7914;50.842;0.166;2023-04-08T05:54:37;16.13;;;5.53;;
15629;SDS011;7914;50.842;0.166;2023-04-08T05:57:06;21.65;;;5.60;;
15629;SDS011;7914;50.842;0.166;2023-04-08T05:59:32;17.58;;;5.50;;
15629;SDS011;7914;50.842;0.166;2023-04-08T06:01:57;17.98;;;6.00;;
15629;SDS011;7914;50.842;0.166;2023-04-08T06:04:23;13.70;;;6.07;;
15629;SDS011;7914;50.842;0.166;2023-04-08T06:06:49;22.23;;;5.40;;
15629;SDS011;7914;50.842;0.166;2023-04-08T06:09:15;11.80;;;4.70;;
15629;SDS011;7914;50.842;0.166;2023-04-08T06:11:40;12.98;;;4.72;;
15629;SDS011;7914;50.842;0.166;2023-04-08T06:14:06;13.98;;;5.20;;
15629;SDS011;7914;50.842;0.166;2023-04-08T06:16:32;10.32;;;4.22;;
15629;SDS011;7914;50.842;0.166;2023-04-08T06:18:57;8.85;;;4.53;;
15629;SDS011;7914;50.842;0.166;2023-04-08T06:21:23;12.45;;;4.82;;
15629;SDS011;7914;50.842;0.166;2023-04-08T06:23:50;11.15;;;5.10;;
15629;SDS011;7914;50.842;0.166;2023-04-08T06:26:16;14.50;;;4.80;;
15629;SDS011;7914;50.842;0.166;2023-04-08T06:28:42;15.45;;;5.18;;
15629;SDS011;7914;50.842;0.166;2023-04-08T06:31:07;21.30;;;5.22;;
15629;SDS011;7914;50.842;0.166;2023-04-08T06:33:33;15.60;;;5.50;;
15629;SDS011;7914;50.842;0.166;2023-04-08T06:36:02;11.55;;;5.40;;
15629;SDS011;7914;50.842;0.166;2023-04-08T06:38:29;12.05;;;5.07;;
15629;SDS011;7914;50.842;0.166;2023-04-08T06:40:56;10.23;;;4.93;;
15629;SDS011;7914;50.842;0.166;2023-04-08T06:43:31;11.57;;;4.20;;
15629;SDS011;7914;50.842;0.166;2023-04-08T06:45:58;8.15;;;3.97;;
15629;SDS011;7914;50.842;0.166;2023-04-08T06:48:24;12.40;;;5.10;;
15629;SDS011;7914;50.842;0.166;2023-04-08T06:50:54;10.48;;;4.45;;
15629;SDS011;7914;50.842;0.166;2023-04-08T06:53:24;9.63;;;4.35;;
15629;SDS011;7914;50.842;0.166;2023-04-08T06:55:50;9.30;;;3.75;;
15629;SDS011;7914;50.842;0.166;2023-04-08T06:58:16;7.03;;;3.35;;
15629;SDS011;7914;50.842;0.166;2023-04-08T07:00:42;5.72;;;2.40;;
15629;SDS011;7914;50.842;0.166;2023-04-08T07:03:08;7.28;;;2.38;;
15629;SDS011;7914;50.842;0.166;2023-04-08T07:05:35;5.18;;;2.33;;
15629;SDS011;7914;50.842;0.166;2023-04-08T07:08:01;6.43;;;3.00;;
15629;SDS011;7914;50.842;0.166;2023-04-08T07:10:27;6.75;;;3.35;;
15629;SDS011;7914;50.842;0.166;2023-04-08T07:12:53;6.25;;;2.80;;
15629;SDS011;7914;50.842;0.166;2023-04-08T07:15:19;5.63;;;2.35;;
15629;SDS011;7914;50.842;0.166;2023-04-08T07:17:44;6.45;;;2.70;;
15629;SDS011;7914;50.842;0.166;2023-04-08T07:20:11;6.95;;;2.63;;
15629;SDS011;7914;50.842;0.166;2023-04-08T07:22:38;5.82;;;2.97;;
15629;SDS011;7914;50.842;0.166;2023-04-08T07:25:04;6.68;;;2.72;;
15629;SDS011;7914;50.842;0.166;2023-04-08T07:27:32;7.00;;;3.22;;
15629;SDS011;7914;50.842;0.166;2023-04-08T07:29:58;7.88;;;3.70;;
15629;SDS011;7914;50.842;0.166;2023-04-08T07:32:24;7.43;;;3.42;;
15629;SDS011;7914;50.842;0.166;2023-04-08T07:34:57;7.55;;;3.80;;
15629;SDS011;7914;50.842;0.166;2023-04-08T07:37:23;9.00;;;3.90;;
15629;SDS011;7914;50.842;0.166;2023-04-08T07:39:49;9.88;;;4.65;;
15629;SDS011;7914;50.842;0.166;2023-04-08T07:42:15;8.88;;;3.67;;
15629;SDS011;7914;50.842;0.166;2023-04-08T07:44:40;7.80;;;3.38;;
15629;SDS011;7914;50.842;0.166;2023-04-08T07:47:06;10.63;;;4.88;;
15629;SDS011;7914;50.842;0.166;2023-04-08T07:49:33;14.75;;;5.03;;
15629;SDS011;7914;50.842;0.166;2023-04-08T07:51:59;9.60;;;4.05;;
15629;SDS011;7914;50.842;0.166;2023-04-08T07:54:25;8.73;;;3.75;;
15629;SDS011;7914;50.842;0.166;2023-04-08T07:56:50;10.60;;;3.58;;
15629;SDS011;7914;50.842;0.166;2023-04-08T07:59:16;9.88;;;4.03;;
15629;SDS011;7914;50.842;0.166;2023-04-08T08:01:42;11.60;;;4.97;;
15629;SDS011;7914;50.842;0.166;2023-04-08T08:04:07;9.55;;;4.32;;
15629;SDS011;7914;50.842;0.166;2023-04-08T08:06:33;9.70;;;4.65;;
15629;SDS011;7914;50.842;0.166;2023-04-08T08:08:59;10.55;;;4.28;;
15629;SDS011;7914;50.842;0.166;2023-04-08T08:11:25;11.90;;;4.70;;
15629;SDS011;7914;50.842;0.166;2023-04-08T08:13:53;13.65;;;4.97;;
15629;SDS011;7914;50.842;0.166;2023-04-08T08:16:19;12.90;;;5.47;;
15629;SDS011;7914;50.842;0.166;2023-04-08T08:18:45;10.50;;;4.03;;
15629;SDS011;7914;50.842;0.166;2023-04-08T08:21:10;9.00;;;3.50;;
15629;SDS011;7914;50.842;0.166;2023-04-08T08:23:36;15.02;;;5.32;;
15629;SDS011;7914;50.842;0.166;2023-04-08T08:26:03;8.80;;;3.13;;
15629;SDS011;7914;50.842;0.166;2023-04-08T08:28:30;13.73;;;3.78;;
15629;SDS011;7914;50.842;0.166;2023-04-08T08:30:56;9.95;;;3.58;;
15629;SDS011;7914;50.842;0.166;2023-04-08T08:33:23;10.00;;;2.95;;
15629;SDS011;7914;50.842;0.166;2023-04-08T08:35:49;8.15;;;3.40;;
15629;SDS011;7914;50.842;0.166;2023-04-08T08:38:15;8.65;;;3.45;;
15629;SDS011;7914;50.842;0.166;2023-04-08T08:40:42;10.02;;;3.65;;
15629;SDS011;7914;50.842;0.166;2023-04-08T08:43:09;9.05;;;3.85;;
15629;SDS011;7914;50.842;0.166;2023-04-08T08:45:38;10.43;;;3.97;;
15629;SDS011;7914;50.842;0.166;2023-04-08T08:48:05;9.25;;;3.97;;
15629;SDS011;7914;50.842;0.166;2023-04-08T08:50:34;8.60;;;3.30;;
15629;SDS011;7914;50.842;0.166;2023-04-08T08:53:00;9.88;;;3.35;;
15629;SDS011;7914;50.842;0.166;2023-04-08T08:55:28;7.25;;;3.22;;
15629;SDS011;7914;50.842;0.166;2023-04-08T08:57:59;7.13;;;2.53;;
15629;SDS011;7914;50.842;0.166;2023-04-08T09:00:38;7.30;;;3.10;;
15629;SDS011;7914;50.842;0.166;2023-04-08T09:05:47;9.52;;;2.65;;
15629;SDS011;7914;50.842;0.166;2023-04-08T09:11:10;7.13;;;2.38;;
15629;SDS011;7914;50.842;0.166;2023-04-08T09:13:43;6.45;;;2.45;;
15629;SDS011;7914;50.842;0.166;2023-04-08T09:16:11;8.02;;;2.67;;
15629;SDS011;7914;50.842;0.166;2023-04-08T09:18:42;7.90;;;2.72;;
15629;SDS011;7914;50.842;0.166;2023-04-08T09:21:10;6.90;;;3.03;;
15629;SDS011;7914;50.842;0.166;2023-04-08T09:23:42;6.97;;;3.03;;
15629;SDS011;7914;50.842;0.166;2023-04-08T09:26:08;5.90;;;2.33;;
15629;SDS011;7914;50.842;0.166;2023-04-08T09:28:39;8.82;;;2.67;;
15629;SDS011;7914;50.842;0.166;2023-04-08T09:31:21;8.23;;;2.95;;
15629;SDS011;7914;50.842;0.166;2023-04-08T09:33:54;7.38;;;2.80;;
15629;SDS011;7914;50.842;0.166;2023-04-08T09:36:34;8.07;;;2.95;;
15629;SDS011;7914;50.842;0.166;2023-04-08T09:39:00;8.07;;;3.10;;
15629;SDS011;7914;50.842;0.166;2023-04-08T09:41:26;7.65;;;3.00;;
15629;SDS011;7914;50.842;0.166;2023-04-08T09:43:53;9.70;;;3.25;;
15629;SDS011;7914;50.842;0.166;2023-04-08T09:46:26;7.45;;;2.83;;
15629;SDS011;7914;50.842;0.166;2023-04-08T09:49:06;7.03;;;2.75;;
15629;SDS011;7914;50.842;0.166;2023-04-08T09:51:43;8.57;;;3.00;;
15629;SDS011;7914;50.842;0.166;2023-04-08T09:54:17;8.43;;;2.80;;
15629;SDS011;7914;50.842;0.166;2023-04-08T09:57:04;9.48;;;2.80;;
15629;SDS011;7914;50.842;0.166;2023-04-08T09:59:36;7.43;;;2.47;;
15629;SDS011;7914;50.842;0.166;2023-04-08T10:02:08;7.47;;;2.63;;
15629;SDS011;7914;50.842;0.166;2023-04-08T10:04:37;7.82;;;2.70;;
15629;SDS011;7914;50.842;0.166;2023-04-08T10:07:06;7.57;;;2.67;;
15629;SDS011;7914;50.842;0.166;2023-04-08T10:09:33;7.72;;;2.70;;
15629;SDS011;7914;50.842;0.166;2023-04-08T10:12:02;6.80;;;2.63;;
15629;SDS011;7914;50.842;0.166;2023-04-08T10:14:28;7.38;;;2.85;;
15629;SDS011;7914;50.842;0.166;2023-04-08T10:19:52;7.28;;;3.13;;
15629;SDS011;7914;50.842;0.166;2023-04-08T10:27:46;5.22;;;2.22;;
15629;SDS011;7914;50.842;0.166;2023-04-08T10:32:50;5.82;;;2.70;;
15629;SDS011;7914;50.842;0.166;2023-04-08T10:35:27;7.57;;;2.88;;
15629;SDS011;7914;50.842;0.166;2023-04-08T10:37:54;8.30;;;2.20;;
15629;SDS011;7914;50.842;0.166;2023-04-08T10:40:20;8.77;;;2.55;;
15629;SDS011;7914;50.842;0.166;2023-04-08T10:42:46;7.45;;;2.55;;
15629;SDS011;7914;50.842;0.166;2023-04-08T10:45:17;6.85;;;2.65;;
15629;SDS011;7914;50.842;0.166;2023-04-08T10:47:43;8.43;;;2.58;;
15629;SDS011;7914;50.842;0.166;2023-04-08T10:50:12;6.38;;;2.38;;
15629;SDS011;7914;50.842;0.166;2023-04-08T10:52:49;5.63;;;2.25;;
15629;SDS011;7914;50.842;0.166;2023-04-08T10:55:19;5.45;;;2.42;;
15629;SDS011;7914;50.842;0.166;2023-04-08T10:57:50;5.78;;;2.45;;
15629;SDS011;7914;50.842;0.166;2023-04-08T11:00:16;6.47;;;1.95;;
15629;SDS011;7914;50.842;0.166;2023-04-08T11:02:42;7.03;;;2.15;;
15629;SDS011;7914;50.842;0.166;2023-04-08T11:05:11;9.70;;;2.38;;
15629;SDS011;7914;50.842;0.166;2023-04-08T11:10:06;6.72;;;2.10;;
15629;SDS011;7914;50.842;0.166;2023-04-08T11:12:34;8.82;;;3.00;;
15629;SDS011;7914;50.842;0.166;2023-04-08T11:15:02;6.65;;;3.00;;
15629;SDS011;7914;50.842;0.166;2023-04-08T11:17:29;6.88;;;2.10;;
15629;SDS011;7914;50.842;0.166;2023-04-08T11:19:55;6.68;;;2.80;;
15629;SDS011;7914;50.842;0.166;2023-04-08T11:22:28;10.43;;;3.10;;
15629;SDS011;7914;50.842;0.166;2023-04-08T11:24:57;7.88;;;3.22;;
15629;SDS011;7914;50.842;0.166;2023-04-08T11:27:24;4.72;;;2.33;;
15629;SDS011;7914;50.842;0.166;2023-04-08T11:29:52;8.35;;;3.72;;
15629;SDS011;7914;50.842;0.166;2023-04-08T11:32:20;8.40;;;3.30;;
15629;SDS011;7914;50.842;0.166;2023-04-08T11:34:47;9.98;;;4.05;;
15629;SDS011;7914;50.842;0.166;2023-04-08T11:37:14;10.65;;;5.32;;
15629;SDS011;7914;50.842;0.166;2023-04-08T11:39:43;6.50;;;3.00;;
15629;SDS011;7914;50.842;0.166;2023-04-08T11:42:09;6.55;;;3.00;;
15629;SDS011;7914;50.842;0.166;2023-04-08T11:44:51;7.63;;;3.35;;
15629;SDS011;7914;50.842;0.166;2023-04-08T11:47:17;7.35;;;2.45;;
15629;SDS011;7914;50.842;0.166;2023-04-08T11:49:43;6.55;;;2.65;;
15629;SDS011;7914;50.842;0.166;2023-04-08T11:52:09;7.20;;;2.70;;
15629;SDS011;7914;50.842;0.166;2023-04-08T11:54:39;6.43;;;2.65;;
15629;SDS011;7914;50.842;0.166;2023-04-08T11:57:06;5.75;;;2.00;;
15629;SDS011;7914;50.842;0.166;2023-04-08T11:59:37;5.57;;;2.10;;
15629;SDS011;7914;50.842;0.166;2023-04-08T12:02:02;5.35;;;2.33;;
15629;SDS011;7914;50.842;0.166;2023-04-08T12:04:29;4.53;;;1.98;;
15629;SDS011;7914;50.842;0.166;2023-04-08T12:06:55;6.80;;;2.20;;
15629;SDS011;7914;50.842;0.166;2023-04-08T12:09:21;5.13;;;2.03;;
15629;SDS011;7914;50.842;0.166;2023-04-08T12:11:46;5.85;;;2.15;;
15629;SDS011;7914;50.842;0.166;2023-04-08T12:14:12;5.93;;;1.70;;
15629;SDS011;7914;50.842;0.166;2023-04-08T12:16:39;6.22;;;2.80;;
15629;SDS011;7914;50.842;0.166;2023-04-08T12:19:05;6.88;;;2.58;;
15629;SDS011;7914;50.842;0.166;2023-04-08T12:21:31;5.63;;;2.25;;
15629;SDS011;7914;50.842;0.166;2023-04-08T12:23:58;5.75;;;1.50;;
15629;SDS011;7914;50.842;0.166;2023-04-08T12:26:24;4.70;;;1.52;;
15629;SDS011;7914;50.842;0.166;2023-04-08T12:28:51;4.80;;;1.98;;
15629;SDS011;7914;50.842;0.166;2023-04-08T12:31:16;5.07;;;1.98;;
15629;SDS011;7914;50.842;0.166;2023-04-08T12:33:42;6.05;;;2.00;;
15629;SDS011;7914;50.842;0.166;2023-04-08T12:36:08;5.03;;;1.67;;
15629;SDS011;7914;50.842;0.166;2023-04-08T12:38:34;4.78;;;1.58;;
15629;SDS011;7914;50.842;0.166;2023-04-08T12:40:59;5.63;;;1.70;;
15629;SDS011;7914;50.842;0.166;2023-04-08T12:43:25;5.10;;;1.90;;
15629;SDS011;7914;50.842;0.166;2023-04-08T12:45:51;6.93;;;2.00;;
15629;SDS011;7914;50.842;0.166;2023-04-08T12:48:16;4.97;;;1.80;;
15629;SDS011;7914;50.842;0.166;2023-04-08T12:50:42;5.68;;;2.10;;
15629;SDS011;7914;50.842;0.166;2023-04-08T12:53:09;4.43;;;1.75;;
15629;SDS011;7914;50.842;0.166;2023-04-08T12:55:35;4.63;;;1.52;;
15629;SDS011;7914;50.842;0.166;2023-04-08T12:58:01;3.83;;;1.48;;
15629;SDS011;7914;50.842;0.166;2023-04-08T13:00:26;6.47;;;2.95;;
15629;SDS011;7914;50.842;0.166;2023-04-08T13:02:52;3.60;;;1.67;;
15629;SDS011;7914;50.842;0.166;2023-04-08T13:05:18;3.05;;;1.45;;
15629;SDS011;7914;50.842;0.166;2023-04-08T13:07:44;5.72;;;1.92;;
15629;SDS011;7914;50.842;0.166;2023-04-08T13:10:10;4.32;;;1.70;;
15629;SDS011;7914;50.842;0.166;2023-04-08T13:12:35;4.32;;;1.80;;
15629;SDS011;7914;50.842;0.166;2023-04-08T13:15:04;5.25;;;1.80;;
15629;SDS011;7914;50.842;0.166;2023-04-08T13:17:31;4.50;;;1.83;;
15629;SDS011;7914;50.842;0.166;2023-04-08T13:19:56;5.13;;;2.10;;
15629;SDS011;7914;50.842;0.166;2023-04-08T13:22:22;5.95;;;2.20;;
15629;SDS011;7914;50.842;0.166;2023-04-08T13:24:48;5.15;;;2.00;;
15629;SDS011;7914;50.842;0.166;2023-04-08T13:27:14;5.35;;;1.88;;
15629;SDS011;7914;50.842;0.166;2023-04-08T13:29:40;5.35;;;1.83;;
15629;SDS011;7914;50.842;0.166;2023-04-08T13:32:06;3.42;;;1.30;;
15629;SDS011;7914;50.842;0.166;2023-04-08T13:34:32;5.45;;;1.80;;
15629;SDS011;7914;50.842;0.166;2023-04-08T13:36:57;5.13;;;1.90;;
15629;SDS011;7914;50.842;0.166;2023-04-08T13:39:23;6.28;;;1.90;;
15629;SDS011;7914;50.842;0.166;2023-04-08T13:41:49;5.43;;;1.90;;
15629;SDS011;7914;50.842;0.166;2023-04-08T13:44:14;4.47;;;1.90;;
15629;SDS011;7914;50.842;0.166;2023-04-08T13:46:41;3.78;;;1.55;;
15629;SDS011;7914;50.842;0.166;2023-04-08T13:49:06;5.57;;;2.08;;
15629;SDS011;7914;50.842;0.166;2023-04-08T13:51:33;3.88;;;1.70;;
15629;SDS011;7914;50.842;0.166;2023-04-08T13:53:59;4.90;;;2.47;;
15629;SDS011;7914;50.842;0.166;2023-04-08T13:56:25;6.18;;;2.15;;
15629;SDS011;7914;50.842;0.166;2023-04-08T13:58:50;8.85;;;1.90;;
15629;SDS011;7914;50.842;0.166;2023-04-08T14:01:16;5.47;;;2.15;;
15629;SDS011;7914;50.842;0.166;2023-04-08T14:03:42;4.18;;;1.88;;
15629;SDS011;7914;50.842;0.166;2023-04-08T14:06:08;4.88;;;1.73;;
15629;SDS011;7914;50.842;0.166;2023-04-08T14:08:33;4.45;;;1.77;;
15629;SDS011;7914;50.842;0.166;2023-04-08T14:10:59;4.55;;;1.65;;
15629;SDS011;7914;50.842;0.166;2023-04-08T14:13:25;4.72;;;1.85;;
15629;SDS011;7914;50.842;0.166;2023-04-08T14:15:50;3.80;;;1.70;;
15629;SDS011;7914;50.842;0.166;2023-04-08T14:18:18;5.10;;;1.90;;
15629;SDS011;7914;50.842;0.166;2023-04-08T14:20:45;5.60;;;2.05;;
15629;SDS011;7914;50.842;0.166;2023-04-08T14:23:11;6.22;;;1.83;;
15629;SDS011;7914;50.842;0.166;2023-04-08T14:25:37;4.65;;;2.00;;
15629;SDS011;7914;50.842;0.166;2023-04-08T14:28:03;5.40;;;1.95;;
15629;SDS011;7914;50.842;0.166;2023-04-08T14:30:29;6.90;;;2.25;;
15629;SDS011;7914;50.842;0.166;2023-04-08T14:32:54;6.68;;;1.90;;
15629;SDS011;7914;50.842;0.166;2023-04-08T14:35:21;5.05;;;1.90;;
15629;SDS011;7914;50.842;0.166;2023-04-08T14:37:47;6.55;;;1.92;;
15629;SDS011;7914;50.842;0.166;2023-04-08T14:40:12;4.22;;;1.77;;
15629;SDS011;7914;50.842;0.166;2023-04-08T14:42:38;7.20;;;1.90;;
15629;SDS011;7914;50.842;0.166;2023-04-08T14:45:04;5.65;;;1.70;;
15629;SDS011;7914;50.842;0.166;2023-04-08T14:47:30;5.07;;;2.30;;
15629;SDS011;7914;50.842;0.166;2023-04-08T14:49:55;5.57;;;2.42;;
15629;SDS011;7914;50.842;0.166;2023-04-08T14:52:21;3.88;;;1.85;;
15629;SDS011;7914;50.842;0.166;2023-04-08T14:54:47;8.27;;;2.70;;
15629;SDS011;7914;50.842;0.166;2023-04-08T14:57:13;5.65;;;1.95;;
15629;SDS011;7914;50.842;0.166;2023-04-08T14:59:40;5.47;;;1.92;;
15629;SDS011;7914;50.842;0.166;2023-04-08T15:02:06;4.97;;;2.25;;
15629;SDS011;7914;50.842;0.166;2023-04-08T15:04:31;6.65;;;1.83;;
15629;SDS011;7914;50.842;0.166;2023-04-08T15:06:57;6.07;;;2.30;;
15629;SDS011;7914;50.842;0.166;2023-04-08T15:09:23;5.15;;;2.20;;
15629;SDS011;7914;50.842;0.166;2023-04-08T15:11:48;5.53;;;1.98;;
15629;SDS011;7914;50.842;0.166;2023-04-08T15:14:14;5.38;;;1.73;;
15629;SDS011;7914;50.842;0.166;2023-04-08T15:16:40;6.30;;;1.80;;
15629;SDS011;7914;50.842;0.166;2023-04-08T15:19:06;5.65;;;2.35;;